sensor_id;sensor_type;location;lat;lon;timestamp;P1;durP1;ratioP1;P2;durP2;ratioP2
44270;SDS011;29963;44.594;11.368;2024-02-28T00:01:02;33.65;;;25.95;;
44270;SDS011;29963;44.594;11.368;2024-02-28T00:03:28;31.17;;;24.40;;
44270;SDS011;29963;44.594;11.368;2024-02-28T00:05:53;30.20;;;24.92;;
44270;SDS011;29963;44.594;11.368;2024-02-28T00:08:19;32.10;;;24.90;;
44270;SDS011;29963;44.594;11.368;2024-02-28T00:10:45;34.25;;;26.48;;
44270;SDS011;29963;44.594;11.368;2024-02-28T00:13:10;32.67;;;25.38;;
44270;SDS011;29963;44.594;11.368;2024-02-28T00:15:36;32.85;;;23.90;;
44270;SDS011;29963;44.594;11.368;2024-02-28T00:18:02;28.83;;;22.02;;
44270;SDS011;29963;44.594;11.368;2024-02-28T00:20:28;33.15;;;26.08;;
44270;SDS011;29963;44.594;11.368;2024-02-28T00:22:54;34.95;;;26.77;;
44270;SDS011;29963;44.594;11.368;2024-02-28T00:25:20;34.95;;;23.92;;
44270;SDS011;29963;44.594;11.368;2024-02-28T00:27:45;33.10;;;24.55;;
44270;SDS011;29963;44.594;11.368;2024-02-28T00:30:14;29.90;;;23.95;;
44270;SDS011;29963;44.594;11.368;2024-02-28T00:32:39;33.05;;;24.30;;
44270;SDS011;29963;44.594;11.368;2024-02-28T00:35:05;31.77;;;23.77;;
44270;SDS011;29963;44.594;11.368;2024-02-28T00:37:32;33.00;;;23.90;;
44270;SDS011;29963;44.594;11.368;2024-02-28T00:39:57;30.63;;;23.50;;
44270;SDS011;29963;44.594;11.368;2024-02-28T00:42:23;30.42;;;24.27;;
44270;SDS011;29963;44.594;11.368;2024-02-28T00:44:49;30.58;;;23.70;;
44270;SDS011;29963;44.594;11.368;2024-02-28T00:47:14;26.77;;;23.02;;
44270;SDS011;29963;44.594;11.368;2024-02-28T00:49:40;30.63;;;23.70;;
44270;SDS011;29963;44.594;11.368;2024-02-28T00:52:06;30.27;;;24.92;;
44270;SDS011;29963;44.594;11.368;2024-02-28T00:54:31;30.80;;;24.52;;
44270;SDS011;29963;44.594;11.368;2024-02-28T00:56:57;31.15;;;23.45;;
44270;SDS011;29963;44.594;11.368;2024-02-28T00:59:22;32.17;;;24.65;;
44270;SDS011;29963;44.594;11.368;2024-02-28T01:01:48;30.60;;;23.20;;
44270;SDS011;29963;44.594;11.368;2024-02-28T01:04:14;32.30;;;24.83;;
44270;SDS011;29963;44.594;11.368;2024-02-28T01:06:40;30.52;;;22.67;;
44270;SDS011;29963;44.594;11.368;2024-02-28T01:09:06;33.50;;;23.85;;
44270;SDS011;29963;44.594;11.368;2024-02-28T01:11:32;32.47;;;26.00;;
44270;SDS011;29963;44.594;11.368;2024-02-28T01:13:57;31.90;;;25.65;;
44270;SDS011;29963;44.594;11.368;2024-02-28T01:16:23;30.02;;;24.50;;
44270;SDS011;29963;44.594;11.368;2024-02-28T01:18:50;38.35;;;25.52;;
44270;SDS011;29963;44.594;11.368;2024-02-28T01:21:16;35.50;;;26.67;;
44270;SDS011;29963;44.594;11.368;2024-02-28T01:23:41;31.27;;;26.65;;
44270;SDS011;29963;44.594;11.368;2024-02-28T01:26:07;34.08;;;27.20;;
44270;SDS011;29963;44.594;11.368;2024-02-28T01:28:32;30.95;;;24.77;;
44270;SDS011;29963;44.594;11.368;2024-02-28T01:30:58;34.45;;;25.35;;
44270;SDS011;29963;44.594;11.368;2024-02-28T01:33:25;31.65;;;25.58;;
44270;SDS011;29963;44.594;11.368;2024-02-28T01:35:50;28.45;;;23.35;;
44270;SDS011;29963;44.594;11.368;2024-02-28T01:38:16;32.92;;;24.60;;
44270;SDS011;29963;44.594;11.368;2024-02-28T01:40:45;31.92;;;24.52;;
44270;SDS011;29963;44.594;11.368;2024-02-28T01:43:11;32.47;;;23.38;;
44270;SDS011;29963;44.594;11.368;2024-02-28T01:45:37;35.55;;;25.10;;
44270;SDS011;29963;44.594;11.368;2024-02-28T01:48:03;29.80;;;24.08;;
44270;SDS011;29963;44.594;11.368;2024-02-28T01:50:31;34.30;;;25.25;;
44270;SDS011;29963;44.594;11.368;2024-02-28T01:52:57;33.20;;;23.95;;
44270;SDS011;29963;44.594;11.368;2024-02-28T01:55:23;32.63;;;24.25;;
44270;SDS011;29963;44.594;11.368;2024-02-28T01:57:49;45.33;;;25.27;;
44270;SDS011;29963;44.594;11.368;2024-02-28T02:00:15;39.13;;;24.77;;
44270;SDS011;29963;44.594;11.368;2024-02-28T02:02:42;39.45;;;26.42;;
44270;SDS011;29963;44.594;11.368;2024-02-28T02:05:09;43.55;;;24.92;;
44270;SDS011;29963;44.594;11.368;2024-02-28T02:07:35;48.30;;;26.38;;
44270;SDS011;29963;44.594;11.368;2024-02-28T02:10:01;41.03;;;24.98;;
44270;SDS011;29963;44.594;11.368;2024-02-28T02:12:27;41.95;;;25.58;;
44270;SDS011;29963;44.594;11.368;2024-02-28T02:14:52;47.90;;;28.13;;
44270;SDS011;29963;44.594;11.368;2024-02-28T02:17:18;39.15;;;25.45;;
44270;SDS011;29963;44.594;11.368;2024-02-28T02:19:44;47.47;;;26.90;;
44270;SDS011;29963;44.594;11.368;2024-02-28T02:22:10;41.72;;;24.83;;
44270;SDS011;29963;44.594;11.368;2024-02-28T02:24:38;46.47;;;27.15;;
44270;SDS011;29963;44.594;11.368;2024-02-28T02:27:04;47.00;;;26.27;;
44270;SDS011;29963;44.594;11.368;2024-02-28T02:29:30;42.38;;;23.58;;
44270;SDS011;29963;44.594;11.368;2024-02-28T02:31:56;44.08;;;26.67;;
44270;SDS011;29963;44.594;11.368;2024-02-28T02:34:22;40.25;;;24.92;;
44270;SDS011;29963;44.594;11.368;2024-02-28T02:36:47;43.33;;;26.10;;
44270;SDS011;29963;44.594;11.368;2024-02-28T02:39:13;38.47;;;24.45;;
44270;SDS011;29963;44.594;11.368;2024-02-28T02:41:38;38.65;;;23.58;;
44270;SDS011;29963;44.594;11.368;2024-02-28T02:44:05;33.17;;;22.40;;
44270;SDS011;29963;44.594;11.368;2024-02-28T02:46:32;31.10;;;20.30;;
44270;SDS011;29963;44.594;11.368;2024-02-28T02:48:57;28.67;;;20.13;;
44270;SDS011;29963;44.594;11.368;2024-02-28T02:51:23;26.67;;;19.17;;
44270;SDS011;29963;44.594;11.368;2024-02-28T02:53:50;34.38;;;20.60;;
44270;SDS011;29963;44.594;11.368;2024-02-28T02:56:16;30.38;;;20.77;;
44270;SDS011;29963;44.594;11.368;2024-02-28T02:58:41;24.67;;;20.08;;
44270;SDS011;29963;44.594;11.368;2024-02-28T03:01:07;31.67;;;18.90;;
44270;SDS011;29963;44.594;11.368;2024-02-28T03:03:33;33.30;;;19.30;;
44270;SDS011;29963;44.594;11.368;2024-02-28T03:05:59;26.08;;;19.17;;
44270;SDS011;29963;44.594;11.368;2024-02-28T03:08:25;26.48;;;18.65;;
44270;SDS011;29963;44.594;11.368;2024-02-28T03:10:51;30.48;;;21.15;;
44270;SDS011;29963;44.594;11.368;2024-02-28T03:13:16;27.90;;;18.30;;
44270;SDS011;29963;44.594;11.368;2024-02-28T03:15:42;28.70;;;19.27;;
44270;SDS011;29963;44.594;11.368;2024-02-28T03:18:07;30.80;;;18.90;;
44270;SDS011;29963;44.594;11.368;2024-02-28T03:20:33;24.60;;;18.50;;
44270;SDS011;29963;44.594;11.368;2024-02-28T03:22:59;24.38;;;17.75;;
44270;SDS011;29963;44.594;11.368;2024-02-28T03:25:25;28.88;;;18.48;;
44270;SDS011;29963;44.594;11.368;2024-02-28T03:27:50;29.25;;;19.67;;
44270;SDS011;29963;44.594;11.368;2024-02-28T03:30:17;31.02;;;20.90;;
44270;SDS011;29963;44.594;11.368;2024-02-28T03:32:43;28.65;;;21.25;;
44270;SDS011;29963;44.594;11.368;2024-02-28T03:35:08;29.13;;;20.50;;
44270;SDS011;29963;44.594;11.368;2024-02-28T03:37:36;27.20;;;19.90;;
44270;SDS011;29963;44.594;11.368;2024-02-28T03:40:02;27.75;;;20.75;;
44270;SDS011;29963;44.594;11.368;2024-02-28T03:42:28;27.00;;;18.75;;
44270;SDS011;29963;44.594;11.368;2024-02-28T03:44:53;26.58;;;19.23;;
44270;SDS011;29963;44.594;11.368;2024-02-28T03:47:19;28.50;;;18.83;;
44270;SDS011;29963;44.594;11.368;2024-02-28T03:49:45;28.17;;;19.58;;
44270;SDS011;29963;44.594;11.368;2024-02-28T03:52:10;23.13;;;17.77;;
44270;SDS011;29963;44.594;11.368;2024-02-28T03:54:36;24.55;;;19.02;;
44270;SDS011;29963;44.594;11.368;2024-02-28T03:57:01;35.20;;;19.55;;
44270;SDS011;29963;44.594;11.368;2024-02-28T03:59:27;29.40;;;19.58;;
44270;SDS011;29963;44.594;11.368;2024-02-28T04:01:53;28.73;;;19.58;;
44270;SDS011;29963;44.594;11.368;2024-02-28T04:04:18;28.60;;;19.00;;
44270;SDS011;29963;44.594;11.368;2024-02-28T04:06:44;23.92;;;17.88;;
44270;SDS011;29963;44.594;11.368;2024-02-28T04:09:09;26.67;;;19.05;;
44270;SDS011;29963;44.594;11.368;2024-02-28T04:11:36;27.60;;;18.60;;
44270;SDS011;29963;44.594;11.368;2024-02-28T04:14:03;30.73;;;19.10;;
44270;SDS011;29963;44.594;11.368;2024-02-28T04:16:28;27.63;;;18.23;;
44270;SDS011;29963;44.594;11.368;2024-02-28T04:18:54;25.75;;;18.15;;
44270;SDS011;29963;44.594;11.368;2024-02-28T04:21:20;39.72;;;20.17;;
44270;SDS011;29963;44.594;11.368;2024-02-28T04:23:45;35.55;;;19.52;;
44270;SDS011;29963;44.594;11.368;2024-02-28T04:26:11;34.78;;;22.10;;
44270;SDS011;29963;44.594;11.368;2024-02-28T04:28:37;42.50;;;24.60;;
44270;SDS011;29963;44.594;11.368;2024-02-28T04:31:03;48.10;;;28.30;;
44270;SDS011;29963;44.594;11.368;2024-02-28T04:33:28;46.55;;;28.42;;
44270;SDS011;29963;44.594;11.368;2024-02-28T04:35:57;49.78;;;28.00;;
44270;SDS011;29963;44.594;11.368;2024-02-28T04:38:22;48.90;;;27.42;;
44270;SDS011;29963;44.594;11.368;2024-02-28T04:40:48;45.53;;;30.77;;
44270;SDS011;29963;44.594;11.368;2024-02-28T04:43:14;44.22;;;29.80;;
44270;SDS011;29963;44.594;11.368;2024-02-28T04:45:40;52.08;;;30.05;;
44270;SDS011;29963;44.594;11.368;2024-02-28T04:48:06;51.47;;;31.05;;
44270;SDS011;29963;44.594;11.368;2024-02-28T04:50:32;48.40;;;30.25;;
44270;SDS011;29963;44.594;11.368;2024-02-28T04:52:57;51.35;;;29.48;;
44270;SDS011;29963;44.594;11.368;2024-02-28T04:55:23;47.80;;;28.38;;
44270;SDS011;29963;44.594;11.368;2024-02-28T04:57:49;46.38;;;28.30;;
44270;SDS011;29963;44.594;11.368;2024-02-28T05:00:15;72.43;;;32.10;;
44270;SDS011;29963;44.594;11.368;2024-02-28T05:02:40;70.15;;;33.08;;
44270;SDS011;29963;44.594;11.368;2024-02-28T05:05:06;91.32;;;33.60;;
44270;SDS011;29963;44.594;11.368;2024-02-28T05:07:32;64.22;;;32.83;;
44270;SDS011;29963;44.594;11.368;2024-02-28T05:09:58;62.05;;;32.35;;
44270;SDS011;29963;44.594;11.368;2024-02-28T05:12:23;68.50;;;34.22;;
44270;SDS011;29963;44.594;11.368;2024-02-28T05:14:49;75.85;;;33.85;;
44270;SDS011;29963;44.594;11.368;2024-02-28T05:17:15;73.85;;;32.60;;
44270;SDS011;29963;44.594;11.368;2024-02-28T05:19:41;70.35;;;33.13;;
44270;SDS011;29963;44.594;11.368;2024-02-28T05:22:10;71.03;;;33.50;;
44270;SDS011;29963;44.594;11.368;2024-02-28T05:24:36;85.55;;;31.63;;
44270;SDS011;29963;44.594;11.368;2024-02-28T05:27:02;72.03;;;33.50;;
44270;SDS011;29963;44.594;11.368;2024-02-28T05:29:28;62.10;;;33.55;;
44270;SDS011;29963;44.594;11.368;2024-02-28T05:31:53;62.25;;;31.05;;
44270;SDS011;29963;44.594;11.368;2024-02-28T05:34:19;59.65;;;29.92;;
44270;SDS011;29963;44.594;11.368;2024-02-28T05:36:45;69.85;;;33.00;;
44270;SDS011;29963;44.594;11.368;2024-02-28T05:39:10;56.20;;;31.15;;
44270;SDS011;29963;44.594;11.368;2024-02-28T05:41:36;70.30;;;31.35;;
44270;SDS011;29963;44.594;11.368;2024-02-28T05:44:01;65.53;;;32.47;;
44270;SDS011;29963;44.594;11.368;2024-02-28T05:46:27;62.42;;;34.83;;
44270;SDS011;29963;44.594;11.368;2024-02-28T05:48:53;70.28;;;34.10;;
44270;SDS011;29963;44.594;11.368;2024-02-28T05:51:18;65.45;;;33.40;;
44270;SDS011;29963;44.594;11.368;2024-02-28T05:53:44;59.78;;;34.17;;
44270;SDS011;29963;44.594;11.368;2024-02-28T05:56:10;64.50;;;34.00;;
44270;SDS011;29963;44.594;11.368;2024-02-28T05:58:43;63.53;;;33.58;;
44270;SDS011;29963;44.594;11.368;2024-02-28T06:01:09;60.03;;;35.38;;
44270;SDS011;29963;44.594;11.368;2024-02-28T06:03:36;76.60;;;37.38;;
44270;SDS011;29963;44.594;11.368;2024-02-28T06:06:04;65.43;;;33.97;;
44270;SDS011;29963;44.594;11.368;2024-02-28T06:08:32;65.22;;;36.17;;
44270;SDS011;29963;44.594;11.368;2024-02-28T06:11:03;67.55;;;32.75;;
44270;SDS011;29963;44.594;11.368;2024-02-28T06:13:28;68.20;;;32.50;;
44270;SDS011;29963;44.594;11.368;2024-02-28T06:15:54;69.18;;;35.55;;
44270;SDS011;29963;44.594;11.368;2024-02-28T06:18:20;76.47;;;32.90;;
44270;SDS011;29963;44.594;11.368;2024-02-28T06:20:48;70.82;;;35.40;;
44270;SDS011;29963;44.594;11.368;2024-02-28T06:23:13;73.53;;;33.30;;
44270;SDS011;29963;44.594;11.368;2024-02-28T06:25:39;81.18;;;34.42;;
44270;SDS011;29963;44.594;11.368;2024-02-28T06:28:05;79.30;;;35.45;;
44270;SDS011;29963;44.594;11.368;2024-02-28T06:30:32;77.90;;;33.90;;
44270;SDS011;29963;44.594;11.368;2024-02-28T06:33:01;82.85;;;34.45;;
44270;SDS011;29963;44.594;11.368;2024-02-28T06:35:27;72.50;;;36.10;;
44270;SDS011;29963;44.594;11.368;2024-02-28T06:37:52;82.40;;;32.42;;
44270;SDS011;29963;44.594;11.368;2024-02-28T06:40:18;75.03;;;34.45;;
44270;SDS011;29963;44.594;11.368;2024-02-28T06:42:45;79.57;;;34.35;;
44270;SDS011;29963;44.594;11.368;2024-02-28T06:45:10;77.25;;;34.42;;
44270;SDS011;29963;44.594;11.368;2024-02-28T06:47:36;79.45;;;33.60;;
44270;SDS011;29963;44.594;11.368;2024-02-28T06:50:04;74.45;;;34.63;;
44270;SDS011;29963;44.594;11.368;2024-02-28T06:52:31;64.82;;;32.47;;
44270;SDS011;29963;44.594;11.368;2024-02-28T06:54:57;60.88;;;29.45;;
44270;SDS011;29963;44.594;11.368;2024-02-28T06:57:23;55.83;;;30.10;;
44270;SDS011;29963;44.594;11.368;2024-02-28T06:59:48;63.45;;;30.65;;
44270;SDS011;29963;44.594;11.368;2024-02-28T07:02:14;57.17;;;31.15;;
44270;SDS011;29963;44.594;11.368;2024-02-28T07:04:40;62.42;;;30.27;;
44270;SDS011;29963;44.594;11.368;2024-02-28T07:07:07;49.67;;;26.10;;
44270;SDS011;29963;44.594;11.368;2024-02-28T07:09:33;69.47;;;29.90;;
44270;SDS011;29963;44.594;11.368;2024-02-28T07:11:59;78.70;;;32.42;;
44270;SDS011;29963;44.594;11.368;2024-02-28T07:14:26;68.80;;;33.03;;
44270;SDS011;29963;44.594;11.368;2024-02-28T07:16:51;74.40;;;34.33;;
44270;SDS011;29963;44.594;11.368;2024-02-28T07:19:18;79.00;;;35.45;;
44270;SDS011;29963;44.594;11.368;2024-02-28T07:21:44;96.20;;;38.85;;
44270;SDS011;29963;44.594;11.368;2024-02-28T07:24:10;87.70;;;36.88;;
44270;SDS011;29963;44.594;11.368;2024-02-28T07:26:37;98.57;;;38.30;;
44270;SDS011;29963;44.594;11.368;2024-02-28T07:29:03;90.55;;;35.40;;
44270;SDS011;29963;44.594;11.368;2024-02-28T07:31:29;89.88;;;36.45;;
44270;SDS011;29963;44.594;11.368;2024-02-28T07:33:54;79.95;;;36.08;;
44270;SDS011;29963;44.594;11.368;2024-02-28T07:36:20;84.68;;;34.50;;
44270;SDS011;29963;44.594;11.368;2024-02-28T07:38:46;72.35;;;30.90;;
44270;SDS011;29963;44.594;11.368;2024-02-28T07:41:11;58.10;;;25.83;;
44270;SDS011;29963;44.594;11.368;2024-02-28T07:43:37;51.63;;;25.98;;
44270;SDS011;29963;44.594;11.368;2024-02-28T07:46:06;67.93;;;30.80;;
44270;SDS011;29963;44.594;11.368;2024-02-28T07:48:33;65.13;;;29.35;;
44270;SDS011;29963;44.594;11.368;2024-02-28T07:50:58;65.15;;;26.85;;
44270;SDS011;29963;44.594;11.368;2024-02-28T07:53:24;55.88;;;28.25;;
44270;SDS011;29963;44.594;11.368;2024-02-28T07:55:49;50.55;;;26.08;;
44270;SDS011;29963;44.594;11.368;2024-02-28T07:58:15;59.25;;;26.05;;
44270;SDS011;29963;44.594;11.368;2024-02-28T08:00:41;55.92;;;24.83;;
44270;SDS011;29963;44.594;11.368;2024-02-28T08:03:08;39.20;;;20.70;;
44270;SDS011;29963;44.594;11.368;2024-02-28T08:05:34;43.92;;;19.75;;
44270;SDS011;29963;44.594;11.368;2024-02-28T08:08:04;29.75;;;17.50;;
44270;SDS011;29963;44.594;11.368;2024-02-28T08:10:31;29.42;;;16.00;;
44270;SDS011;29963;44.594;11.368;2024-02-28T08:12:56;20.52;;;13.82;;
44270;SDS011;29963;44.594;11.368;2024-02-28T08:15:22;24.13;;;14.20;;
44270;SDS011;29963;44.594;11.368;2024-02-28T08:17:48;15.85;;;11.10;;
44270;SDS011;29963;44.594;11.368;2024-02-28T08:20:14;18.42;;;12.73;;
44270;SDS011;29963;44.594;11.368;2024-02-28T08:22:39;20.42;;;13.20;;
44270;SDS011;29963;44.594;11.368;2024-02-28T08:25:05;21.60;;;10.95;;
44270;SDS011;29963;44.594;11.368;2024-02-28T08:27:31;21.63;;;10.40;;
44270;SDS011;29963;44.594;11.368;2024-02-28T08:29:59;21.73;;;10.88;;
44270;SDS011;29963;44.594;11.368;2024-02-28T08:32:25;19.42;;;12.93;;
44270;SDS011;29963;44.594;11.368;2024-02-28T08:34:51;19.30;;;11.68;;
44270;SDS011;29963;44.594;11.368;2024-02-28T08:37:19;22.70;;;13.05;;
44270;SDS011;29963;44.594;11.368;2024-02-28T08:39:44;19.27;;;12.52;;
44270;SDS011;29963;44.594;11.368;2024-02-28T08:42:10;21.00;;;11.82;;
44270;SDS011;29963;44.594;11.368;2024-02-28T08:44:36;17.27;;;11.18;;
44270;SDS011;29963;44.594;11.368;2024-02-28T08:47:02;17.23;;;11.73;;
44270;SDS011;29963;44.594;11.368;2024-02-28T08:49:27;16.48;;;12.30;;
44270;SDS011;29963;44.594;11.368;2024-02-28T08:51:54;17.85;;;11.70;;
44270;SDS011;29963;44.594;11.368;2024-02-28T08:54:19;20.60;;;12.45;;
44270;SDS011;29963;44.594;11.368;2024-02-28T08:56:45;18.20;;;10.85;;
44270;SDS011;29963;44.594;11.368;2024-02-28T08:59:11;19.55;;;11.05;;
44270;SDS011;29963;44.594;11.368;2024-02-28T09:01:37;12.82;;;9.93;;
44270;SDS011;29963;44.594;11.368;2024-02-28T09:04:03;22.95;;;11.60;;
44270;SDS011;29963;44.594;11.368;2024-02-28T09:06:28;16.35;;;11.38;;
44270;SDS011;29963;44.594;11.368;2024-02-28T09:08:54;22.05;;;12.45;;
44270;SDS011;29963;44.594;11.368;2024-02-28T09:11:20;11.25;;;10.02;;
44270;SDS011;29963;44.594;11.368;2024-02-28T09:13:45;14.10;;;10.85;;
44270;SDS011;29963;44.594;11.368;2024-02-28T09:16:11;12.73;;;11.07;;
44270;SDS011;29963;44.594;11.368;2024-02-28T09:18:36;13.68;;;9.15;;
44270;SDS011;29963;44.594;11.368;2024-02-28T09:21:02;13.23;;;10.00;;
44270;SDS011;29963;44.594;11.368;2024-02-28T09:23:28;12.15;;;10.75;;
44270;SDS011;29963;44.594;11.368;2024-02-28T09:25:53;13.70;;;11.18;;
44270;SDS011;29963;44.594;11.368;2024-02-28T09:28:21;14.50;;;9.85;;
44270;SDS011;29963;44.594;11.368;2024-02-28T09:30:46;16.77;;;9.77;;
44270;SDS011;29963;44.594;11.368;2024-02-28T09:33:12;11.93;;;8.77;;
44270;SDS011;29963;44.594;11.368;2024-02-28T09:35:38;15.73;;;10.65;;
44270;SDS011;29963;44.594;11.368;2024-02-28T09:38:04;13.30;;;10.15;;
44270;SDS011;29963;44.594;11.368;2024-02-28T09:40:30;15.27;;;12.45;;
44270;SDS011;29963;44.594;11.368;2024-02-28T09:42:58;15.13;;;13.57;;
44270;SDS011;29963;44.594;11.368;2024-02-28T09:45:27;18.40;;;13.07;;
44270;SDS011;29963;44.594;11.368;2024-02-28T09:47:55;17.17;;;13.60;;
44270;SDS011;29963;44.594;11.368;2024-02-28T09:50:28;18.38;;;11.57;;
44270;SDS011;29963;44.594;11.368;2024-02-28T09:52:53;22.05;;;12.60;;
44270;SDS011;29963;44.594;11.368;2024-02-28T09:55:19;13.80;;;11.18;;
44270;SDS011;29963;44.594;11.368;2024-02-28T09:57:48;14.50;;;11.18;;
44270;SDS011;29963;44.594;11.368;2024-02-28T10:00:18;15.48;;;9.85;;
44270;SDS011;29963;44.594;11.368;2024-02-28T10:02:45;14.50;;;10.45;;
44270;SDS011;29963;44.594;11.368;2024-02-28T10:05:14;16.55;;;10.18;;
44270;SDS011;29963;44.594;11.368;2024-02-28T10:07:41;14.77;;;9.85;;
44270;SDS011;29963;44.594;11.368;2024-02-28T10:10:07;21.30;;;10.68;;
44270;SDS011;29963;44.594;11.368;2024-02-28T10:12:33;21.27;;;12.07;;
44270;SDS011;29963;44.594;11.368;2024-02-28T10:15:00;20.35;;;10.40;;
44270;SDS011;29963;44.594;11.368;2024-02-28T10:17:26;17.55;;;9.68;;
44270;SDS011;29963;44.594;11.368;2024-02-28T10:19:52;18.73;;;10.60;;
44270;SDS011;29963;44.594;11.368;2024-02-28T10:22:17;20.70;;;11.15;;
44270;SDS011;29963;44.594;11.368;2024-02-28T10:24:43;25.63;;;10.85;;
44270;SDS011;29963;44.594;11.368;2024-02-28T10:27:09;15.02;;;10.02;;
44270;SDS011;29963;44.594;11.368;2024-02-28T10:29:34;21.25;;;9.57;;
44270;SDS011;29963;44.594;11.368;2024-02-28T10:32:00;14.57;;;8.13;;
44270;SDS011;29963;44.594;11.368;2024-02-28T10:34:28;18.75;;;8.20;;
44270;SDS011;29963;44.594;11.368;2024-02-28T10:36:54;17.20;;;8.10;;
44270;SDS011;29963;44.594;11.368;2024-02-28T10:39:22;15.05;;;8.63;;
44270;SDS011;29963;44.594;11.368;2024-02-28T10:41:49;16.38;;;7.15;;
44270;SDS011;29963;44.594;11.368;2024-02-28T10:44:17;14.10;;;6.65;;
44270;SDS011;29963;44.594;11.368;2024-02-28T10:46:45;13.70;;;6.00;;
44270;SDS011;29963;44.594;11.368;2024-02-28T10:49:14;13.23;;;6.32;;
44270;SDS011;29963;44.594;11.368;2024-02-28T10:51:43;12.60;;;6.55;;
44270;SDS011;29963;44.594;11.368;2024-02-28T10:54:12;10.00;;;5.78;;
44270;SDS011;29963;44.594;11.368;2024-02-28T10:56:41;9.20;;;5.82;;
44270;SDS011;29963;44.594;11.368;2024-02-28T10:59:08;11.85;;;4.95;;
44270;SDS011;29963;44.594;11.368;2024-02-28T11:01:35;9.75;;;5.03;;
44270;SDS011;29963;44.594;11.368;2024-02-28T11:04:03;5.63;;;3.67;;
44270;SDS011;29963;44.594;11.368;2024-02-28T11:06:29;5.95;;;3.78;;
44270;SDS011;29963;44.594;11.368;2024-02-28T11:08:55;7.38;;;3.35;;
44270;SDS011;29963;44.594;11.368;2024-02-28T11:11:24;5.43;;;3.05;;
44270;SDS011;29963;44.594;11.368;2024-02-28T11:13:56;6.32;;;3.50;;
44270;SDS011;29963;44.594;11.368;2024-02-28T11:16:29;5.60;;;3.22;;
44270;SDS011;29963;44.594;11.368;2024-02-28T11:18:56;10.57;;;4.60;;
44270;SDS011;29963;44.594;11.368;2024-02-28T11:21:25;5.97;;;4.30;;
44270;SDS011;29963;44.594;11.368;2024-02-28T11:23:52;7.15;;;4.13;;
44270;SDS011;29963;44.594;11.368;2024-02-28T11:26:23;6.80;;;4.30;;
44270;SDS011;29963;44.594;11.368;2024-02-28T11:28:49;6.75;;;5.22;;
44270;SDS011;29963;44.594;11.368;2024-02-28T11:31:15;6.95;;;4.68;;
44270;SDS011;29963;44.594;11.368;2024-02-28T11:33:44;10.60;;;4.30;;
44270;SDS011;29963;44.594;11.368;2024-02-28T11:36:11;7.65;;;4.60;;
44270;SDS011;29963;44.594;11.368;2024-02-28T11:38:38;11.18;;;5.85;;
44270;SDS011;29963;44.594;11.368;2024-02-28T11:41:04;10.30;;;5.22;;
44270;SDS011;29963;44.594;11.368;2024-02-28T11:43:30;9.05;;;5.97;;
44270;SDS011;29963;44.594;11.368;2024-02-28T11:45:57;14.27;;;6.60;;
44270;SDS011;29963;44.594;11.368;2024-02-28T11:48:24;14.98;;;5.25;;
44270;SDS011;29963;44.594;11.368;2024-02-28T11:50:51;8.20;;;5.43;;
44270;SDS011;29963;44.594;11.368;2024-02-28T11:53:17;11.15;;;5.65;;
44270;SDS011;29963;44.594;11.368;2024-02-28T11:55:43;10.25;;;6.80;;
44270;SDS011;29963;44.594;11.368;2024-02-28T11:58:12;10.38;;;6.63;;
44270;SDS011;29963;44.594;11.368;2024-02-28T12:00:48;9.75;;;6.07;;
44270;SDS011;29963;44.594;11.368;2024-02-28T12:03:19;8.23;;;5.05;;
44270;SDS011;29963;44.594;11.368;2024-02-28T12:05:49;7.20;;;5.70;;
44270;SDS011;29963;44.594;11.368;2024-02-28T12:08:18;11.68;;;6.28;;
44270;SDS011;29963;44.594;11.368;2024-02-28T12:10:48;9.68;;;6.88;;
44270;SDS011;29963;44.594;11.368;2024-02-28T12:13:19;10.27;;;6.10;;
44270;SDS011;29963;44.594;11.368;2024-02-28T12:15:47;10.07;;;6.40;;
44270;SDS011;29963;44.594;11.368;2024-02-28T12:18:16;13.27;;;6.07;;
44270;SDS011;29963;44.594;11.368;2024-02-28T12:20:41;13.32;;;5.90;;
44270;SDS011;29963;44.594;11.368;2024-02-28T12:23:07;16.38;;;5.47;;
44270;SDS011;29963;44.594;11.368;2024-02-28T12:25:33;9.82;;;5.35;;
44270;SDS011;29963;44.594;11.368;2024-02-28T12:28:00;12.30;;;5.18;;
44270;SDS011;29963;44.594;11.368;2024-02-28T12:30:26;10.40;;;5.75;;
44270;SDS011;29963;44.594;11.368;2024-02-28T12:32:52;11.52;;;6.68;;
44270;SDS011;29963;44.594;11.368;2024-02-28T12:35:17;10.50;;;6.00;;
44270;SDS011;29963;44.594;11.368;2024-02-28T12:37:43;8.07;;;4.95;;
44270;SDS011;29963;44.594;11.368;2024-02-28T12:40:08;8.43;;;5.20;;
44270;SDS011;29963;44.594;11.368;2024-02-28T12:42:34;9.55;;;5.22;;
44270;SDS011;29963;44.594;11.368;2024-02-28T12:45:01;9.27;;;6.20;;
44270;SDS011;29963;44.594;11.368;2024-02-28T12:47:28;7.78;;;5.45;;
44270;SDS011;29963;44.594;11.368;2024-02-28T12:49:55;9.15;;;6.03;;
44270;SDS011;29963;44.594;11.368;2024-02-28T12:52:21;11.00;;;6.20;;
44270;SDS011;29963;44.594;11.368;2024-02-28T12:54:46;10.10;;;5.82;;
44270;SDS011;29963;44.594;11.368;2024-02-28T12:57:12;10.18;;;6.38;;
44270;SDS011;29963;44.594;11.368;2024-02-28T12:59:41;14.88;;;6.50;;
44270;SDS011;29963;44.594;11.368;2024-02-28T13:02:07;7.85;;;5.68;;
44270;SDS011;29963;44.594;11.368;2024-02-28T13:04:34;9.80;;;5.45;;
44270;SDS011;29963;44.594;11.368;2024-02-28T13:07:00;11.55;;;5.90;;
44270;SDS011;29963;44.594;11.368;2024-02-28T13:09:25;9.10;;;5.90;;
44270;SDS011;29963;44.594;11.368;2024-02-28T13:11:51;11.07;;;6.20;;
44270;SDS011;29963;44.594;11.368;2024-02-28T13:14:17;8.15;;;6.30;;
44270;SDS011;29963;44.594;11.368;2024-02-28T13:16:42;9.73;;;5.18;;
44270;SDS011;29963;44.594;11.368;2024-02-28T13:19:09;9.13;;;5.70;;
44270;SDS011;29963;44.594;11.368;2024-02-28T13:21:35;5.85;;;4.53;;
44270;SDS011;29963;44.594;11.368;2024-02-28T13:24:02;8.35;;;4.18;;
44270;SDS011;29963;44.594;11.368;2024-02-28T13:26:29;7.82;;;4.13;;
44270;SDS011;29963;44.594;11.368;2024-02-28T13:28:54;8.68;;;4.90;;
44270;SDS011;29963;44.594;11.368;2024-02-28T13:31:20;8.00;;;3.33;;
44270;SDS011;29963;44.594;11.368;2024-02-28T13:33:46;5.05;;;3.70;;
44270;SDS011;29963;44.594;11.368;2024-02-28T13:36:13;6.45;;;4.22;;
44270;SDS011;29963;44.594;11.368;2024-02-28T13:38:39;5.88;;;3.95;;
44270;SDS011;29963;44.594;11.368;2024-02-28T13:41:04;7.20;;;3.85;;
44270;SDS011;29963;44.594;11.368;2024-02-28T13:43:30;6.38;;;3.80;;
44270;SDS011;29963;44.594;11.368;2024-02-28T13:45:56;7.25;;;4.00;;
44270;SDS011;29963;44.594;11.368;2024-02-28T13:48:25;5.55;;;4.55;;
44270;SDS011;29963;44.594;11.368;2024-02-28T13:50:55;7.82;;;4.25;;
44270;SDS011;29963;44.594;11.368;2024-02-28T13:53:21;10.57;;;5.50;;
44270;SDS011;29963;44.594;11.368;2024-02-28T13:55:47;6.93;;;3.63;;
44270;SDS011;29963;44.594;11.368;2024-02-28T13:58:13;6.93;;;5.22;;
44270;SDS011;29963;44.594;11.368;2024-02-28T14:00:40;7.30;;;4.38;;
44270;SDS011;29963;44.594;11.368;2024-02-28T14:03:09;5.65;;;3.78;;
44270;SDS011;29963;44.594;11.368;2024-02-28T14:05:35;5.43;;;3.33;;
44270;SDS011;29963;44.594;11.368;2024-02-28T14:08:01;4.10;;;3.70;;